Time;durP1;ratioP1;P1;durP2;ratioP2;P2;SDS_P1;SDS_P2;PMS_P1;PMS_P2;Temp;Humidity;BMP_temperature;BMP_pressure;BME280_temperature;BME280_humidity;BME280_pressure;Samples;Min_cycle;Max_cycle;Signal;HPM_P1;HPM_P2
2022/04/03 00:01:37;;;;;;;16.15;2.90;;;-0.70;99.90;;;;;;4993291;28;20125;-71
2022/04/03 00:04:03;;;;;;;10.35;2.83;;;-0.80;99.90;;;;;;4993290;28;20049;-71
2022/04/03 00:06:29;;;;;;;10.05;2.60;;;-0.80;99.90;;;;;;4977441;28;20049;-71
2022/04/03 00:08:56;;;;;;;6.55;2.65;;;-0.80;99.90;;;;;;4975910;28;20041;-71
2022/04/03 00:11:22;;;;;;;6.45;2.50;;;-0.90;99.90;;;;;;4998678;28;20119;-71
2022/04/03 00:13:49;;;;;;;6.95;2.70;;;-0.80;99.90;;;;;;4964722;28;20591;-71
2022/04/03 00:16:15;;;;;;;7.65;2.97;;;-0.90;99.90;;;;;;4993735;28;20068;-71
2022/04/03 00:18:41;;;;;;;8.18;2.75;;;-0.90;99.90;;;;;;4995863;28;20128;-71
2022/04/03 00:21:08;;;;;;;6.03;2.65;;;-0.90;99.90;;;;;;4990795;28;20045;-71
2022/04/03 00:23:34;;;;;;;7.47;2.47;;;-0.90;99.90;;;;;;4974140;28;20112;-71
2022/04/03 00:26:00;;;;;;;7.60;2.90;;;-0.90;99.90;;;;;;4997045;28;20077;-71
2022/04/03 00:28:28;;;;;;;5.93;2.70;;;-0.90;99.90;;;;;;4995396;28;20049;-71
2022/04/03 00:30:55;;;;;;;6.80;2.78;;;-0.90;99.90;;;;;;4993715;28;20150;-71
2022/04/03 00:33:21;;;;;;;5.63;3.05;;;-0.90;99.90;;;;;;4993594;28;20045;-71
2022/04/03 00:35:47;;;;;;;8.55;2.70;;;-1.00;99.90;;;;;;4973589;28;20060;-71
2022/04/03 00:38:13;;;;;;;6.70;2.75;;;-1.00;99.90;;;;;;4994156;28;20119;-71
2022/04/03 00:40:39;;;;;;;8.18;2.72;;;-1.10;99.90;;;;;;4992730;28;20126;-71
2022/04/03 00:43:05;;;;;;;9.27;2.78;;;-1.30;99.90;;;;;;4973305;28;20046;-72
2022/04/03 00:45:30;;;;;;;11.38;3.03;;;-1.30;99.90;;;;;;4988526;28;20056;-73
2022/04/03 00:47:56;;;;;;;21.33;3.35;;;-1.40;99.90;;;;;;4992824;28;20530;-73
2022/04/03 00:50:23;;;;;;;26.98;4.70;;;-1.40;99.90;;;;;;4998278;28;20045;-73
2022/04/03 00:52:49;;;;;;;9.60;3.10;;;-1.40;99.90;;;;;;4992324;28;20045;-73
2022/04/03 00:55:15;;;;;;;8.95;3.42;;;-1.50;99.90;;;;;;4973054;28;20877;-73
2022/04/03 00:57:43;;;;;;;11.68;3.25;;;-1.60;99.90;;;;;;4993562;28;20041;-73
2022/04/03 01:00:24;;;;;;;8.27;3.17;;;-1.60;99.90;;;;;;4988080;28;20292;-73
2022/04/03 01:02:50;;;;;;;6.65;3.22;;;-1.70;99.90;;;;;;4972053;28;20095;-73
2022/04/03 01:05:16;;;;;;;7.82;3.05;;;-1.70;99.90;;;;;;4970656;28;20769;-73
2022/04/03 01:07:43;;;;;;;7.38;3.20;;;-1.90;99.90;;;;;;4994718;28;20041;-73
2022/04/03 01:10:09;;;;;;;7.22;2.95;;;-1.90;99.90;;;;;;4991237;28;20115;-72
2022/04/03 01:12:44;;;;;;;27.20;3.67;;;-1.90;99.90;;;;;;4991160;28;20168;-73
2022/04/03 01:15:13;;;;;;;12.32;3.50;;;-1.80;99.90;;;;;;4993562;28;20088;-70
2022/04/03 01:17:40;;;;;;;12.50;3.33;;;-1.70;99.90;;;;;;4994682;28;20690;-70
2022/04/03 01:20:06;;;;;;;18.60;3.58;;;-1.80;99.90;;;;;;4999973;28;20114;-70
2022/04/03 01:22:33;;;;;;;7.93;3.20;;;-1.80;99.90;;;;;;4972037;28;20124;-71
2022/04/03 01:24:59;;;;;;;9.85;3.70;;;-1.80;99.90;;;;;;4977629;28;20051;-71
2022/04/03 01:27:25;;;;;;;9.52;3.30;;;-1.90;99.90;;;;;;4991340;28;21200;-71
2022/04/03 01:29:52;;;;;;;8.65;3.28;;;-2.00;99.90;;;;;;4991162;28;20183;-71
2022/04/03 01:32:21;;;;;;;8.02;3.00;;;-1.90;99.90;;;;;;4991706;28;20175;-70
2022/04/03 01:34:47;;;;;;;5.63;3.53;;;-1.90;99.90;;;;;;4973114;28;20558;-71
2022/04/03 01:37:13;;;;;;;8.45;3.60;;;-1.90;99.90;;;;;;4978062;28;20049;-71
2022/04/03 01:39:39;;;;;;;7.80;3.38;;;-1.90;99.90;;;;;;4988102;28;20087;-71
2022/04/03 01:42:05;;;;;;;7.45;3.13;;;-1.80;99.90;;;;;;4996807;28;20735;-71
2022/04/03 01:44:31;;;;;;;8.55;2.90;;;-1.80;99.90;;;;;;4977649;28;20045;-71
2022/04/03 01:46:57;;;;;;;7.75;2.92;;;-1.80;99.90;;;;;;4979237;28;20052;-71
2022/04/03 01:49:23;;;;;;;9.20;3.88;;;-1.80;99.90;;;;;;4998600;28;20048;-71
2022/04/03 01:51:49;;;;;;;8.13;3.55;;;-1.80;99.90;;;;;;5000586;28;20041;-71
2022/04/03 01:54:14;;;;;;;7.05;3.35;;;-1.80;99.90;;;;;;4996162;28;20052;-71
2022/04/03 01:56:40;;;;;;;8.15;2.90;;;-1.80;99.90;;;;;;4984033;28;20057;-71
2022/04/03 01:59:06;;;;;;;7.03;3.22;;;-1.80;99.90;;;;;;4994487;28;20057;-71
2022/04/03 02:01:34;;;;;;;6.82;3.40;;;-1.80;99.90;;;;;;4992246;28;20053;-71
2022/04/03 02:04:03;;;;;;;8.75;3.70;;;-1.90;99.90;;;;;;4990514;28;21202;-71
2022/04/03 02:06:30;;;;;;;6.80;3.20;;;-2.00;99.90;;;;;;4991235;28;20076;-71
2022/04/03 02:08:56;;;;;;;9.38;3.30;;;-2.00;99.90;;;;;;4991770;28;20052;-71
2022/04/03 02:11:22;;;;;;;11.25;3.25;;;-1.90;99.90;;;;;;4969506;28;20552;-71
2022/04/03 02:13:47;;;;;;;8.20;3.33;;;-1.90;99.90;;;;;;4989314;28;20054;-71
2022/04/03 02:16:15;;;;;;;16.65;4.00;;;-1.90;99.90;;;;;;4992335;28;20543;-71
2022/04/03 02:18:41;;;;;;;23.90;4.05;;;-1.80;99.90;;;;;;4960608;28;20542;-71
2022/04/03 02:21:07;;;;;;;10.55;4.05;;;-1.80;99.90;;;;;;4994686;28;20216;-71
2022/04/03 02:23:33;;;;;;;8.57;3.50;;;-1.80;99.90;;;;;;4995282;28;20803;-71
2022/04/03 02:25:59;;;;;;;7.75;3.38;;;-1.70;99.90;;;;;;4997563;28;20126;-71
2022/04/03 02:28:25;;;;;;;15.75;4.70;;;-1.70;99.90;;;;;;4979417;28;20277;-71
2022/04/03 02:30:51;;;;;;;14.23;3.70;;;-1.70;99.90;;;;;;4979945;28;20081;-71
2022/04/03 02:33:17;;;;;;;9.15;3.80;;;-1.70;99.90;;;;;;4996162;28;20525;-71
2022/04/03 02:35:42;;;;;;;14.75;4.65;;;-1.80;99.90;;;;;;4997322;28;20058;-71
2022/04/03 02:38:08;;;;;;;9.05;3.95;;;-1.80;99.90;;;;;;4994361;28;21294;-71
2022/04/03 02:40:34;;;;;;;8.93;3.85;;;-1.70;99.90;;;;;;4999572;28;20044;-71
2022/04/03 02:43:00;;;;;;;12.15;3.78;;;-1.70;99.90;;;;;;4981008;28;20052;-71
2022/04/03 02:45:26;;;;;;;12.98;4.10;;;-1.70;99.90;;;;;;4997576;28;20045;-71
2022/04/03 02:47:55;;;;;;;17.95;4.10;;;-1.70;99.90;;;;;;4991869;28;20045;-71
2022/04/03 02:50:22;;;;;;;15.45;3.83;;;-1.70;99.90;;;;;;4993143;28;20108;-71
2022/04/03 02:52:49;;;;;;;10.05;4.30;;;-1.70;99.90;;;;;;4997693;28;20080;-71
2022/04/03 02:55:19;;;;;;;9.52;3.60;;;-1.80;99.90;;;;;;4994656;28;20041;-71
2022/04/03 02:57:45;;;;;;;10.15;4.13;;;-1.80;99.90;;;;;;4989779;28;20048;-71
2022/04/03 03:00:15;;;;;;;8.27;3.78;;;-1.80;99.90;;;;;;4975494;28;20052;-71
2022/04/03 03:02:42;;;;;;;8.48;4.03;;;-1.80;99.90;;;;;;4994947;28;20188;-71
2022/04/03 03:05:09;;;;;;;8.45;4.22;;;-1.80;99.90;;;;;;4994730;28;20055;-71
2022/04/03 03:07:37;;;;;;;10.70;4.07;;;-1.80;99.90;;;;;;4979030;28;20160;-71
2022/04/03 03:10:04;;;;;;;10.10;4.40;;;-1.80;99.90;;;;;;4976974;28;20050;-71
2022/04/03 03:12:30;;;;;;;12.85;4.30;;;-1.80;99.90;;;;;;4995572;28;20120;-71
2022/04/03 03:14:56;;;;;;;7.80;3.60;;;-1.90;99.90;;;;;;4993333;28;20107;-71
2022/04/03 03:17:22;;;;;;;8.55;4.20;;;-2.10;99.90;;;;;;4990610;28;20057;-71
2022/04/03 03:19:48;;;;;;;7.75;4.32;;;-2.10;99.90;;;;;;4975241;28;20057;-71
2022/04/03 03:22:14;;;;;;;9.60;4.32;;;-2.00;99.90;;;;;;4964726;28;20052;-71
2022/04/03 03:24:41;;;;;;;9.18;3.97;;;-2.00;99.90;;;;;;4997816;28;20770;-71
2022/04/03 03:27:07;;;;;;;8.57;4.25;;;-2.00;99.90;;;;;;5001003;28;20045;-71
2022/04/03 03:29:33;;;;;;;7.70;4.47;;;-1.90;99.90;;;;;;5000708;28;20096;-71
2022/04/03 03:31:59;;;;;;;10.23;4.55;;;-1.90;99.90;;;;;;5000191;28;20151;-71
2022/04/03 03:34:25;;;;;;;9.88;4.55;;;-1.90;99.90;;;;;;4980394;28;20080;-71
2022/04/03 03:36:51;;;;;;;8.25;4.43;;;-1.90;99.90;;;;;;4992057;28;20053;-71
2022/04/03 03:39:17;;;;;;;11.60;4.47;;;-1.90;99.90;;;;;;4998641;28;20640;-71
2022/04/03 03:41:43;;;;;;;13.63;4.35;;;-1.80;99.90;;;;;;4971547;28;20139;-71
2022/04/03 03:44:12;;;;;;;15.35;4.65;;;-1.70;99.90;;;;;;4999926;28;20045;-71
2022/04/03 03:46:39;;;;;;;17.75;5.10;;;-1.80;99.90;;;;;;5004727;28;20048;-71
2022/04/03 03:49:09;;;;;;;14.82;4.60;;;-1.80;99.90;;;;;;5002968;28;20079;-71
2022/04/03 03:51:38;;;;;;;12.05;4.43;;;-1.80;99.90;;;;;;4995018;28;20129;-71
2022/04/03 03:54:04;;;;;;;49.47;6.57;;;-1.70;99.90;;;;;;4999347;28;20053;-71
2022/04/03 03:56:30;;;;;;;19.92;4.82;;;-1.60;99.90;;;;;;5001939;28;20045;-71
2022/04/03 03:58:56;;;;;;;26.55;5.68;;;-1.60;99.90;;;;;;4996275;28;20057;-72
2022/04/03 04:01:22;;;;;;;14.38;5.00;;;-1.50;99.90;;;;;;5000170;28;20410;-71
2022/04/03 04:03:48;;;;;;;7.35;3.92;;;-1.40;99.90;;;;;;4995957;28;20530;-71
2022/04/03 04:06:15;;;;;;;8.93;4.65;;;-1.40;99.90;;;;;;4981102;28;20103;-71
2022/04/03 04:08:41;;;;;;;9.60;4.30;;;-1.20;99.90;;;;;;4981462;28;20058;-71
2022/04/03 04:11:08;;;;;;;7.95;4.38;;;-1.10;99.90;;;;;;4999733;28;20127;-71
2022/04/03 04:13:34;;;;;;;9.57;5.18;;;-1.00;99.90;;;;;;4997527;28;20747;-71
2022/04/03 04:16:00;;;;;;;7.78;4.25;;;-0.90;99.90;;;;;;5001532;28;20068;-71
2022/04/03 04:18:25;;;;;;;8.85;4.70;;;-0.90;99.90;;;;;;4972100;28;20052;-71
2022/04/03 04:20:52;;;;;;;9.05;4.68;;;-0.80;99.90;;;;;;4977995;28;20052;-71
2022/04/03 04:23:19;;;;;;;9.07;4.85;;;-0.80;99.90;;;;;;4983885;28;20190;-71
2022/04/03 04:25:45;;;;;;;10.60;4.88;;;-0.70;99.90;;;;;;4998258;28;20088;-71
2022/04/03 04:28:11;;;;;;;8.70;5.07;;;-0.60;99.90;;;;;;5000083;28;20446;-71
2022/04/03 04:30:38;;;;;;;10.10;5.00;;;-0.60;99.90;;;;;;4997573;28;20562;-71
2022/04/03 04:33:06;;;;;;;8.38;4.88;;;-0.40;99.90;;;;;;4994111;28;20053;-71
2022/04/03 04:35:34;;;;;;;10.30;4.80;;;-0.40;99.90;;;;;;4977539;28;20960;-71
2022/04/03 04:38:00;;;;;;;10.52;5.20;;;-0.30;99.90;;;;;;4980186;28;20041;-71
2022/04/03 04:40:25;;;;;;;8.52;4.85;;;-0.20;99.90;;;;;;4996302;28;20128;-71
2022/04/03 04:42:51;;;;;;;12.23;5.10;;;-0.20;99.90;;;;;;4995938;28;20687;-71
2022/04/03 04:45:17;;;;;;;18.20;4.75;;;-0.10;99.90;;;;;;4987355;28;20052;-71
2022/04/03 04:47:44;;;;;;;19.23;5.22;;;-0.10;99.90;;;;;;4995892;28;20057;-71
2022/04/03 04:50:12;;;;;;;16.83;5.45;;;0.00;99.90;;;;;;4976664;28;20045;-71
2022/04/03 04:52:39;;;;;;;13.02;5.72;;;0.00;99.90;;;;;;4995018;28;20099;-71
2022/04/03 04:55:06;;;;;;;9.25;5.03;;;0.10;99.90;;;;;;4995708;28;20750;-71
2022/04/03 04:57:33;;;;;;;8.85;5.43;;;0.10;99.90;;;;;;4977747;28;20159;-71
2022/04/03 04:59:59;;;;;;;9.45;5.30;;;0.10;99.90;;;;;;4988080;28;21082;-71
2022/04/03 05:02:25;;;;;;;14.05;5.20;;;0.10;99.90;;;;;;4998704;28;20050;-71
2022/04/03 05:04:51;;;;;;;12.88;5.80;;;0.10;99.90;;;;;;4981419;28;20184;-71
2022/04/03 05:07:17;;;;;;;16.40;5.35;;;0.20;99.90;;;;;;4999372;28;20499;-71
2022/04/03 05:09:45;;;;;;;13.63;5.45;;;0.20;99.90;;;;;;4996013;28;20057;-71
2022/04/03 05:12:12;;;;;;;16.73;5.30;;;0.20;99.90;;;;;;4998438;28;20139;-71
2022/04/03 05:14:38;;;;;;;13.15;5.22;;;0.20;99.90;;;;;;4995684;28;20045;-71
2022/04/03 05:17:08;;;;;;;10.23;4.90;;;0.20;99.90;;;;;;4987159;28;20172;-71
2022/04/03 05:19:36;;;;;;;13.88;5.20;;;0.30;99.90;;;;;;4994131;28;20053;-71
2022/04/03 05:22:02;;;;;;;12.55;5.00;;;0.30;99.90;;;;;;4982670;28;20631;-71
2022/04/03 05:24:28;;;;;;;20.27;5.50;;;0.30;99.90;;;;;;4999418;28;20077;-71
2022/04/03 05:26:54;;;;;;;17.48;5.32;;;0.40;99.90;;;;;;5001170;28;20164;-71
2022/04/03 05:29:20;;;;;;;12.10;4.80;;;0.40;99.90;;;;;;5003027;28;20049;-71
2022/04/03 05:31:46;;;;;;;14.93;5.30;;;0.50;99.90;;;;;;4996586;28;20135;-71
2022/04/03 05:34:12;;;;;;;17.05;4.90;;;0.50;99.90;;;;;;4994966;28;20044;-72
2022/04/03 05:36:39;;;;;;;17.35;5.65;;;0.50;99.90;;;;;;4992563;28;20049;-71
2022/04/03 05:39:06;;;;;;;16.67;5.53;;;0.60;99.90;;;;;;4991606;28;20106;-71
2022/04/03 05:41:33;;;;;;;12.75;5.43;;;0.60;99.90;;;;;;4991308;28;20041;-71
2022/04/03 05:44:00;;;;;;;18.52;5.60;;;0.60;99.90;;;;;;4977914;28;20052;-71
2022/04/03 05:46:25;;;;;;;11.38;5.40;;;0.60;99.90;;;;;;4972020;28;20053;-72
2022/04/03 05:48:51;;;;;;;9.23;6.00;;;0.70;99.90;;;;;;5000409;28;20051;-72
2022/04/03 05:51:17;;;;;;;9.13;5.90;;;0.80;99.90;;;;;;4991719;28;20042;-71
2022/04/03 05:53:43;;;;;;;11.63;6.90;;;1.00;99.90;;;;;;4993832;28;20053;-71
2022/04/03 05:56:09;;;;;;;12.07;6.72;;;0.90;99.90;;;;;;4973113;28;20114;-71
2022/04/03 05:58:35;;;;;;;12.15;6.65;;;0.90;99.90;;;;;;4996625;28;20060;-71
2022/04/03 06:01:01;;;;;;;10.70;5.88;;;0.90;99.90;;;;;;4992820;28;20049;-71
2022/04/03 06:03:27;;;;;;;11.00;6.57;;;0.90;99.90;;;;;;4997347;28;20092;-72
2022/04/03 06:05:53;;;;;;;11.30;6.53;;;1.10;99.90;;;;;;4991285;28;20997;-72
2022/04/03 06:08:19;;;;;;;16.08;6.82;;;1.40;99.90;;;;;;4989322;28;20047;-71
2022/04/03 06:10:45;;;;;;;10.38;5.68;;;1.80;99.90;;;;;;4990755;28;20041;-71
2022/04/03 06:13:14;;;;;;;11.55;6.20;;;2.00;99.90;;;;;;4972748;28;20161;-71
2022/04/03 06:15:46;;;;;;;10.90;5.78;;;2.00;99.90;;;;;;4992755;28;20859;-72
2022/04/03 06:18:15;;;;;;;9.73;6.03;;;2.00;99.90;;;;;;4990935;28;20177;-71
2022/04/03 06:20:42;;;;;;;10.55;5.68;;;1.80;99.90;;;;;;4992415;28;20053;-72
2022/04/03 06:23:19;;;;;;;8.70;5.63;;;1.80;99.90;;;;;;4994374;28;20056;-71
2022/04/03 06:25:47;;;;;;;9.05;5.82;;;1.80;99.90;;;;;;4973022;28;20649;-71
2022/04/03 06:28:13;;;;;;;8.48;4.95;;;1.80;99.90;;;;;;4998332;28;20156;-71
2022/04/03 06:30:40;;;;;;;11.13;5.60;;;1.80;99.90;;;;;;4991262;28;20602;-72
2022/04/03 06:33:06;;;;;;;8.10;4.85;;;1.80;99.90;;;;;;5006054;28;20038;-72
2022/04/03 06:35:33;;;;;;;12.32;5.38;;;1.80;99.90;;;;;;4994199;28;20600;-71
2022/04/03 06:37:59;;;;;;;13.38;5.70;;;1.90;99.90;;;;;;4980693;28;20083;-72
2022/04/03 06:40:25;;;;;;;20.80;5.60;;;1.90;99.90;;;;;;4994501;28;20084;-72
2022/04/03 06:42:51;;;;;;;11.32;5.20;;;2.00;99.90;;;;;;4978204;28;20751;-72
2022/04/03 06:45:17;;;;;;;13.20;5.97;;;2.00;99.90;;;;;;4993846;28;20056;-71
2022/04/03 06:47:44;;;;;;;12.80;5.50;;;2.00;99.90;;;;;;4993043;28;20049;-71
2022/04/03 06:50:10;;;;;;;18.80;6.07;;;2.10;99.90;;;;;;4992226;28;20144;-72
2022/04/03 06:52:36;;;;;;;22.73;5.10;;;2.20;99.90;;;;;;4996595;28;20242;-72
2022/04/03 06:55:06;;;;;;;16.38;5.60;;;2.70;99.90;;;;;;4954202;28;20060;-72
2022/04/03 06:57:32;;;;;;;11.82;5.15;;;3.10;99.90;;;;;;4994004;28;20092;-72
2022/04/03 06:59:58;;;;;;;12.05;5.10;;;3.30;99.90;;;;;;4969651;28;20049;-72
2022/04/03 07:02:24;;;;;;;16.55;5.53;;;3.50;99.90;;;;;;4970015;28;20111;-72
2022/04/03 07:04:50;;;;;;;12.68;5.20;;;3.60;99.90;;;;;;4988763;28;20041;-72
2022/04/03 07:07:24;;;;;;;14.25;5.50;;;4.00;99.90;;;;;;4992736;28;20643;-72
2022/04/03 07:09:59;;;;;;;11.40;5.00;;;4.20;99.90;;;;;;4973801;28;20160;-72
2022/04/03 07:12:26;;;;;;;8.70;4.70;;;4.40;99.90;;;;;;4990949;28;20052;-73
2022/04/03 07:14:51;;;;;;;7.97;4.75;;;4.60;99.90;;;;;;4990015;28;20214;-72
2022/04/03 07:17:17;;;;;;;9.27;4.40;;;4.90;99.90;;;;;;4973444;28;20400;-71
2022/04/03 07:19:44;;;;;;;7.60;4.10;;;5.10;99.90;;;;;;4976290;28;20097;-71
2022/04/03 07:22:10;;;;;;;8.10;4.30;;;4.90;99.90;;;;;;4969092;28;20119;-72
2022/04/03 07:24:35;;;;;;;9.07;4.30;;;4.80;99.90;;;;;;4967258;28;20049;-72
2022/04/03 07:27:01;;;;;;;7.45;4.38;;;5.00;99.90;;;;;;4951065;28;20085;-72
2022/04/03 07:29:27;;;;;;;8.80;4.07;;;5.10;99.90;;;;;;4969919;28;20045;-72
2022/04/03 07:31:53;;;;;;;8.20;3.70;;;4.90;99.90;;;;;;4975401;28;20050;-72
2022/04/03 07:34:19;;;;;;;8.70;3.78;;;4.80;99.90;;;;;;4983173;28;20155;-72
2022/04/03 07:36:45;;;;;;;7.53;3.60;;;4.80;99.90;;;;;;4973660;28;20046;-73
2022/04/03 07:39:12;;;;;;;9.27;3.90;;;4.70;99.90;;;;;;4974452;28;20046;-72
2022/04/03 07:41:38;;;;;;;6.22;3.50;;;4.60;99.90;;;;;;4965852;28;20061;-73
2022/04/03 07:44:06;;;;;;;7.45;3.70;;;4.50;99.90;;;;;;4965909;28;20045;-72
2022/04/03 07:46:32;;;;;;;6.63;4.07;;;5.00;99.90;;;;;;4969193;28;20132;-71
2022/04/03 07:48:58;;;;;;;6.45;3.50;;;5.30;99.90;;;;;;4959497;28;20092;-72
2022/04/03 07:51:23;;;;;;;5.70;3.30;;;5.60;99.90;;;;;;4973626;28;20135;-72
2022/04/03 07:53:50;;;;;;;7.97;3.30;;;5.70;99.90;;;;;;4968098;28;20136;-72
2022/04/03 07:56:16;;;;;;;7.45;3.40;;;5.90;99.90;;;;;;4970697;28;20046;-72
2022/04/03 07:58:42;;;;;;;7.10;3.10;;;6.10;99.90;;;;;;4970615;28;20104;-71
2022/04/03 08:01:08;;;;;;;8.00;3.25;;;6.30;99.90;;;;;;4980009;28;20716;-72
2022/04/03 08:03:34;;;;;;;6.57;2.92;;;6.50;99.90;;;;;;4972529;28;20830;-72
2022/04/03 08:06:00;;;;;;;6.93;2.80;;;6.80;99.90;;;;;;4970429;28;20061;-72
2022/04/03 08:08:26;;;;;;;6.72;2.42;;;6.90;99.90;;;;;;4968641;28;20058;-72
2022/04/03 08:10:51;;;;;;;4.80;2.17;;;7.00;99.90;;;;;;4963419;28;20049;-72
2022/04/03 08:13:17;;;;;;;4.93;2.17;;;7.40;99.90;;;;;;4976079;28;20064;-72
2022/04/03 08:15:43;;;;;;;7.05;2.45;;;7.40;99.90;;;;;;4970534;28;20050;-72
2022/04/03 08:18:10;;;;;;;5.35;2.10;;;7.80;99.90;;;;;;4974626;28;20053;-72
2022/04/03 08:20:36;;;;;;;5.85;2.40;;;7.50;99.90;;;;;;4972599;28;20054;-73
2022/04/03 08:23:03;;;;;;;6.28;2.08;;;7.70;99.90;;;;;;4981776;28;20053;-73
2022/04/03 08:25:33;;;;;;;7.53;2.40;;;7.60;99.90;;;;;;4980825;28;20147;-72
2022/04/03 08:28:03;;;;;;;4.30;1.90;;;7.80;99.90;;;;;;4982291;28;20805;-72
2022/04/03 08:30:31;;;;;;;7.65;2.33;;;8.10;99.90;;;;;;4982025;28;20045;-72
2022/04/03 08:32:58;;;;;;;7.32;1.88;;;8.20;99.90;;;;;;4978707;28;20080;-72
2022/04/03 08:35:26;;;;;;;6.13;1.80;;;8.10;99.90;;;;;;4977570;28;20056;-72
2022/04/03 08:37:53;;;;;;;5.60;1.65;;;7.90;99.90;;;;;;4976587;28;20408;-72
2022/04/03 08:40:21;;;;;;;5.28;1.65;;;7.80;99.90;;;;;;4970622;28;20054;-72
2022/04/03 08:42:49;;;;;;;6.53;1.83;;;8.20;99.90;;;;;;4989899;28;20058;-72
2022/04/03 08:45:15;;;;;;;6.57;1.50;;;7.70;99.90;;;;;;5002309;28;20050;-72
2022/04/03 08:47:46;;;;;;;8.30;1.70;;;7.90;99.90;;;;;;4992649;28;20056;-73
2022/04/03 08:50:13;;;;;;;3.88;1.20;;;8.20;99.90;;;;;;4990033;28;20045;-72
2022/04/03 08:52:47;;;;;;;6.28;1.50;;;8.40;99.90;;;;;;4992500;28;20041;-72
2022/04/03 08:55:13;;;;;;;4.60;1.20;;;8.60;99.90;;;;;;4990339;28;20080;-72
2022/04/03 08:57:39;;;;;;;4.78;1.40;;;8.90;99.90;;;;;;4994615;28;20084;-73
2022/04/03 09:00:07;;;;;;;5.28;1.27;;;8.90;99.90;;;;;;4988983;28;20120;-72
2022/04/03 09:02:33;;;;;;;5.88;1.45;;;9.00;99.90;;;;;;4990099;28;20527;-73
2022/04/03 09:05:01;;;;;;;4.45;1.20;;;9.20;99.90;;;;;;4988166;28;20103;-73
2022/04/03 09:07:27;;;;;;;5.30;1.20;;;9.20;99.90;;;;;;4997224;28;20049;-73
2022/04/03 09:10:10;;;;;;;6.25;1.05;;;9.30;99.90;;;;;;4985059;28;20054;-73
2022/04/03 09:12:47;;;;;;;4.73;1.00;;;9.30;99.90;;;;;;4991012;28;20053;-73
2022/04/03 09:15:16;;;;;;;3.65;1.08;;;9.30;99.90;;;;;;4987122;28;20457;-73
2022/04/03 09:17:44;;;;;;;4.15;1.10;;;9.10;99.90;;;;;;4988493;28;20093;-73
2022/04/03 09:20:15;;;;;;;6.63;1.20;;;8.70;99.90;;;;;;4990653;28;20955;-73
2022/04/03 09:22:48;;;;;;;6.20;1.33;;;8.30;99.90;;;;;;4988984;28;20057;-73
2022/04/03 09:25:16;;;;;;;7.65;1.30;;;8.20;99.90;;;;;;4977111;28;20054;-73
2022/04/03 09:27:51;;;;;;;5.30;1.10;;;8.20;99.90;;;;;;4989186;28;20523;-74
2022/04/03 09:30:19;;;;;;;5.18;1.40;;;8.10;99.90;;;;;;4992838;28;20045;-73
2022/04/03 09:32:55;;;;;;;5.93;1.25;;;8.00;99.90;;;;;;4995059;28;20050;-73
2022/04/03 09:35:26;;;;;;;4.50;1.50;;;8.10;99.90;;;;;;4993435;28;20081;-73
2022/04/03 09:38:06;;;;;;;3.13;1.70;;;8.40;99.90;;;;;;4988298;28;20046;-73
2022/04/03 09:40:33;;;;;;;3.38;1.10;;;8.90;99.90;;;;;;4988389;28;20045;-73
2022/04/03 09:43:27;;;;;;;4.05;1.30;;;8.80;99.90;;;;;;4991921;28;20053;-73
2022/04/03 09:46:01;;;;;;;3.80;1.10;;;9.10;99.90;;;;;;4989993;28;20077;-73
2022/04/03 09:48:31;;;;;;;16.05;1.83;;;9.50;99.90;;;;;;4986201;28;20131;-73
2022/04/03 09:51:09;;;;;;;5.32;1.30;;;9.50;89.40;;;;;;4986932;28;20054;-73
2022/04/03 09:53:51;;;;;;;3.40;1.00;;;9.50;91.60;;;;;;4988331;28;20061;-73
2022/04/03 09:56:25;;;;;;;3.90;0.90;;;9.20;91.20;;;;;;4984986;28;20103;-73
2022/04/03 09:58:51;;;;;;;3.05;0.88;;;9.70;99.90;;;;;;4995948;28;20119;-73
2022/04/03 10:01:33;;;;;;;3.17;0.90;;;9.80;97.80;;;;;;4985433;28;20219;-73
2022/04/03 10:04:01;;;;;;;4.10;1.08;;;9.80;77.60;;;;;;4988825;28;20065;-73
2022/04/03 10:06:28;;;;;;;5.18;0.98;;;10.00;88.70;;;;;;4992201;28;20042;-73
2022/04/03 10:08:54;;;;;;;2.55;0.60;;;10.50;96.20;;;;;;4991399;28;20496;-73
2022/04/03 10:11:22;;;;;;;3.72;1.20;;;10.80;90.30;;;;;;4971349;28;20144;-73
2022/04/03 10:13:48;;;;;;;3.05;0.75;;;10.70;84.80;;;;;;4984273;28;20050;-73
2022/04/03 10:16:16;;;;;;;4.07;1.10;;;10.30;87.30;;;;;;4978656;28;20058;-73
2022/04/03 10:18:43;;;;;;;5.45;1.10;;;10.10;94.10;;;;;;4983072;28;20053;-73
2022/04/03 10:21:32;;;;;;;3.08;1.10;;;9.90;93.20;;;;;;4983196;28;20054;-73
2022/04/03 10:24:09;;;;;;;2.90;0.85;;;9.80;85.80;;;;;;4976437;28;20421;-73
2022/04/03 10:26:38;;;;;;;6.45;1.40;;;9.70;83.20;;;;;;4977903;28;20048;-73
2022/04/03 10:29:08;;;;;;;5.82;1.50;;;9.20;90.30;;;;;;4984365;28;20564;-73
2022/04/03 10:31:39;;;;;;;4.68;1.30;;;9.00;88.70;;;;;;4985964;28;20050;-73
2022/04/03 10:34:05;;;;;;;4.22;1.00;;;9.10;83.90;;;;;;4984778;28;20852;-73
2022/04/03 10:36:32;;;;;;;3.55;0.82;;;9.80;95.90;;;;;;4980984;28;20050;-73
2022/04/03 10:39:06;;;;;;;2.88;0.85;;;9.90;90.20;;;;;;4969804;28;20497;-73
2022/04/03 10:41:35;;;;;;;3.45;0.90;;;9.70;85.60;;;;;;4967634;28;21464;-73
2022/04/03 10:44:23;;;;;;;1.77;0.80;;;9.90;84.20;;;;;;4970356;28;20065;-73
2022/04/03 10:47:04;;;;;;;4.38;0.90;;;10.40;82.50;;;;;;4970041;28;20232;-73
2022/04/03 10:49:48;;;;;;;3.25;1.08;;;10.30;77.50;;;;;;4972265;28;20057;-73
2022/04/03 10:52:17;;;;;;;2.80;0.90;;;10.80;93.80;;;;;;4965166;28;20045;-73
2022/04/03 10:54:49;;;;;;;3.00;0.90;;;10.20;87.00;;;;;;4968516;28;20492;-72
2022/04/03 10:57:54;;;;;;;6.40;0.88;;;9.80;87.30;;;;;;4965752;28;20048;-73
2022/04/03 11:00:23;;;;;;;6.10;1.27;;;9.70;91.30;;;;;;4922144;28;20046;-73
2022/04/03 11:02:55;;;;;;;3.35;1.08;;;9.40;95.00;;;;;;4977667;28;20126;-73
2022/04/03 11:05:27;;;;;;;4.90;1.00;;;9.50;96.50;;;;;;4966688;28;20828;-73
2022/04/03 11:08:13;;;;;;;7.82;1.02;;;9.40;85.10;;;;;;5000289;28;20184;-73
2022/04/03 11:10:46;;;;;;;6.93;1.10;;;9.60;95.50;;;;;;4977984;28;20144;-73
2022/04/03 11:13:13;;;;;;;3.90;0.98;;;10.60;99.90;;;;;;4987088;28;20912;-73
2022/04/03 11:15:56;;;;;;;3.85;1.10;;;10.80;92.60;;;;;;4991986;28;20099;-73
2022/04/03 11:18:39;;;;;;;4.97;0.90;;;11.30;91.70;;;;;;5001409;28;20209;-73
2022/04/03 11:21:10;;;;;;;4.72;1.20;;;11.70;77.40;;;;;;5000622;28;20086;-74
2022/04/03 11:23:47;;;;;;;4.80;1.00;;;12.40;91.30;;;;;;5005375;28;20049;-72
2022/04/03 11:26:13;;;;;;;4.70;1.02;;;12.20;88.20;;;;;;5005362;28;20052;-72
2022/04/03 11:28:40;;;;;;;4.25;0.88;;;11.80;91.40;;;;;;5009082;28;20048;-73
2022/04/03 11:31:06;;;;;;;2.25;0.93;;;11.40;90.80;;;;;;4983737;28;20604;-74
2022/04/03 11:33:33;;;;;;;3.45;0.88;;;10.90;92.60;;;;;;5005577;28;20248;-74
2022/04/03 11:36:09;;;;;;;2.35;0.80;;;10.80;91.30;;;;;;5004808;28;20148;-73
2022/04/03 11:38:46;;;;;;;2.60;0.88;;;10.40;90.50;;;;;;5008224;28;20053;-73
2022/04/03 11:41:16;;;;;;;2.97;0.80;;;10.30;87.00;;;;;;5005928;28;20092;-73
2022/04/03 11:43:42;;;;;;;2.65;1.00;;;10.20;91.70;;;;;;5007053;28;20050;-73
2022/04/03 11:46:09;;;;;;;1.70;0.70;;;10.10;90.10;;;;;;5004693;28;20530;-73
2022/04/03 11:48:42;;;;;;;5.22;1.05;;;10.10;87.00;;;;;;5005269;28;20492;-72
2022/04/03 11:51:11;;;;;;;2.58;0.73;;;10.00;93.70;;;;;;4986882;28;20052;-74
2022/04/03 11:53:38;;;;;;;4.35;0.90;;;10.00;89.30;;;;;;5008456;28;20711;-73
2022/04/03 11:56:08;;;;;;;4.65;0.80;;;9.90;94.00;;;;;;4988997;28;20057;-74
2022/04/03 11:58:38;;;;;;;2.97;0.88;;;10.00;95.60;;;;;;5004169;28;20049;-73
2022/04/03 12:01:04;;;;;;;4.28;1.10;;;9.90;83.10;;;;;;5005980;28;20122;-74
2022/04/03 12:03:30;;;;;;;3.90;1.00;;;9.50;77.50;;;;;;4972072;28;20467;-74
2022/04/03 12:06:18;;;;;;;6.03;1.10;;;9.30;77.90;;;;;;5013079;28;20037;-74
2022/04/03 12:08:46;;;;;;;4.53;1.23;;;9.20;75.40;;;;;;5012905;28;20069;-74
2022/04/03 12:11:18;;;;;;;4.20;1.20;;;8.90;77.50;;;;;;5011977;28;20156;-74
2022/04/03 12:13:44;;;;;;;4.10;1.23;;;9.10;79.60;;;;;;5013456;28;20053;-75
2022/04/03 12:16:15;;;;;;;2.75;0.90;;;9.00;81.40;;;;;;4987966;28;20354;-74
2022/04/03 12:19:08;;;;;;;3.63;1.00;;;9.20;85.20;;;;;;4994895;28;20057;-74
2022/04/03 12:21:43;;;;;;;3.17;0.80;;;9.30;92.40;;;;;;4991227;28;20054;-74
2022/04/03 12:24:21;;;;;;;3.78;0.88;;;9.90;90.50;;;;;;4988174;28;20054;-74
2022/04/03 12:27:01;;;;;;;2.58;0.80;;;9.80;76.50;;;;;;4992065;28;20409;-74
2022/04/03 12:29:29;;;;;;;2.47;0.90;;;10.00;87.80;;;;;;4990187;28;20049;-74
2022/04/03 12:32:07;;;;;;;3.97;1.00;;;10.10;89.10;;;;;;4989636;28;20139;-74
2022/04/03 12:34:35;;;;;;;2.22;0.75;;;10.00;81.50;;;;;;4991971;28;20042;-74
2022/04/03 12:37:02;;;;;;;2.85;0.80;;;10.10;79.10;;;;;;4992923;28;21051;-74
2022/04/03 12:39:38;;;;;;;3.00;0.90;;;10.10;78.10;;;;;;4993656;28;20123;-74
2022/04/03 12:42:25;;;;;;;2.20;0.60;;;10.10;76.20;;;;;;5005352;28;20058;-74
2022/04/03 12:44:56;;;;;;;3.47;0.73;;;10.20;75.80;;;;;;4986765;28;20168;-73
2022/04/03 12:47:29;;;;;;;4.10;0.80;;;10.30;77.60;;;;;;4993362;28;20050;-73
2022/04/03 12:50:05;;;;;;;13.15;1.65;;;10.20;77.40;;;;;;4970892;28;20110;-73
2022/04/03 12:52:52;;;;;;;9.10;1.08;;;10.10;78.20;;;;;;4987598;28;20058;-73
2022/04/03 12:55:33;;;;;;;2.42;0.80;;;10.00;78.30;;;;;;4987246;28;20798;-73